sensor_id;sensor_type;location;lat;lon;timestamp;pressure;altitude;pressure_sealevel;temperature;humidity
61554;BME280;47425;51.976;5.326;2023-06-14T00:01:00;101402.81;;;22.10;34.48
61554;BME280;47425;51.976;5.326;2023-06-14T00:03:28;101408.84;;;22.13;36.80
61554;BME280;47425;51.976;5.326;2023-06-14T00:05:55;101399.13;;;22.27;34.98
61554;BME280;47425;51.976;5.326;2023-06-14T00:08:23;101402.72;;;22.42;33.91
61554;BME280;47425;51.976;5.326;2023-06-14T00:10:50;101400.63;;;22.47;34.90
61554;BME280;47425;51.976;5.326;2023-06-14T00:13:17;101398.13;;;22.58;35.80
61554;BME280;47425;51.976;5.326;2023-06-14T00:15:45;101408.69;;;22.60;36.23
61554;BME280;47425;51.976;5.326;2023-06-14T00:18:12;101410.41;;;22.46;35.39
61554;BME280;47425;51.976;5.326;2023-06-14T00:20:40;101403.00;;;22.37;35.74
61554;BME280;47425;51.976;5.326;2023-06-14T00:23:08;101411.66;;;22.41;36.68
61554;BME280;47425;51.976;5.326;2023-06-14T00:25:36;101416.25;;;22.39;34.52
61554;BME280;47425;51.976;5.326;2023-06-14T00:28:03;101405.81;;;22.34;35.32
61554;BME280;47425;51.976;5.326;2023-06-14T00:30:29;101401.44;;;22.19;35.78
61554;BME280;47425;51.976;5.326;2023-06-14T00:32:58;101414.66;;;22.20;36.03
61554;BME280;47425;51.976;5.326;2023-06-14T00:35:25;101415.59;;;22.19;35.07
61554;BME280;47425;51.976;5.326;2023-06-14T00:37:51;101408.94;;;22.12;34.76
61554;BME280;47425;51.976;5.326;2023-06-14T00:40:20;101410.25;;;22.05;35.71
61554;BME280;47425;51.976;5.326;2023-06-14T00:42:49;101405.53;;;22.24;37.17
61554;BME280;47425;51.976;5.326;2023-06-14T00:45:16;101406.31;;;22.41;36.99
61554;BME280;47425;51.976;5.326;2023-06-14T00:47:43;101414.53;;;22.67;34.49
61554;BME280;47425;51.976;5.326;2023-06-14T00:50:12;101411.28;;;22.90;36.03
61554;BME280;47425;51.976;5.326;2023-06-14T00:52:39;101414.41;;;22.97;35.54
61554;BME280;47425;51.976;5.326;2023-06-14T00:55:06;101405.44;;;22.98;33.80
61554;BME280;47425;51.976;5.326;2023-06-14T00:57:33;101398.13;;;22.73;34.15
61554;BME280;47425;51.976;5.326;2023-06-14T01:00:06;101411.56;;;22.71;34.64
61554;BME280;47425;51.976;5.326;2023-06-14T01:02:36;101402.03;;;22.53;34.42
61554;BME280;47425;51.976;5.326;2023-06-14T01:05:03;101402.91;;;22.39;34.16
61554;BME280;47425;51.976;5.326;2023-06-14T01:07:41;101406.16;;;22.13;35.61
61554;BME280;47425;51.976;5.326;2023-06-14T01:10:26;101407.41;;;22.08;35.36
61554;BME280;47425;51.976;5.326;2023-06-14T01:13:07;101403.66;;;21.96;34.88
61554;BME280;47425;51.976;5.326;2023-06-14T01:15:41;101405.75;;;21.91;36.33
61554;BME280;47425;51.976;5.326;2023-06-14T01:18:10;101397.16;;;21.86;35.72
61554;BME280;47425;51.976;5.326;2023-06-14T01:20:44;101404.28;;;21.85;35.24
61554;BME280;47425;51.976;5.326;2023-06-14T01:23:17;101408.34;;;21.76;35.63
61554;BME280;47425;51.976;5.326;2023-06-14T01:25:44;101369.72;;;21.37;37.68
61554;BME280;47425;51.976;5.326;2023-06-14T01:28:15;101407.28;;;21.49;37.63
61554;BME280;47425;51.976;5.326;2023-06-14T01:30:44;101414.31;;;21.66;37.64
61554;BME280;47425;51.976;5.326;2023-06-14T01:33:11;101414.13;;;21.69;37.03
61554;BME280;47425;51.976;5.326;2023-06-14T01:35:39;101415.81;;;21.86;37.17
61554;BME280;47425;51.976;5.326;2023-06-14T01:38:07;101417.69;;;22.14;36.88
61554;BME280;47425;51.976;5.326;2023-06-14T01:40:36;101415.84;;;22.31;38.08
61554;BME280;47425;51.976;5.326;2023-06-14T01:43:03;101413.66;;;22.52;35.34
61554;BME280;47425;51.976;5.326;2023-06-14T01:45:32;101413.91;;;22.33;36.34
61554;BME280;47425;51.976;5.326;2023-06-14T01:47:59;101413.88;;;22.18;35.64
61554;BME280;47425;51.976;5.326;2023-06-14T01:50:28;101401.47;;;22.03;35.66
61554;BME280;47425;51.976;5.326;2023-06-14T01:52:57;101390.19;;;21.83;34.90
61554;BME280;47425;51.976;5.326;2023-06-14T01:55:24;101408.75;;;21.85;36.32
61554;BME280;47425;51.976;5.326;2023-06-14T01:57:53;101400.47;;;21.59;37.88
61554;BME280;47425;51.976;5.326;2023-06-14T02:00:20;101397.63;;;21.62;38.18
61554;BME280;47425;51.976;5.326;2023-06-14T02:02:47;101391.19;;;21.66;37.51
61554;BME280;47425;51.976;5.326;2023-06-14T02:05:15;101411.03;;;21.76;36.55
61554;BME280;47425;51.976;5.326;2023-06-14T02:07:44;101401.34;;;21.43;35.86
61554;BME280;47425;51.976;5.326;2023-06-14T02:10:15;101398.34;;;21.18;37.86
61554;BME280;47425;51.976;5.326;2023-06-14T02:12:44;101398.78;;;21.26;36.64
61554;BME280;47425;51.976;5.326;2023-06-14T02:15:12;101401.09;;;21.16;36.33
61554;BME280;47425;51.976;5.326;2023-06-14T02:17:42;101401.25;;;20.81;36.74
61554;BME280;47425;51.976;5.326;2023-06-14T02:20:12;101400.50;;;20.61;36.97
61554;BME280;47425;51.976;5.326;2023-06-14T02:22:41;101403.13;;;20.45;38.27
61554;BME280;47425;51.976;5.326;2023-06-14T02:25:08;101399.75;;;20.42;37.98
61554;BME280;47425;51.976;5.326;2023-06-14T02:27:35;101406.66;;;20.46;39.00
61554;BME280;47425;51.976;5.326;2023-06-14T02:30:03;101401.84;;;20.70;39.13
61554;BME280;47425;51.976;5.326;2023-06-14T02:32:33;101399.00;;;20.73;39.90
61554;BME280;47425;51.976;5.326;2023-06-14T02:35:00;101401.34;;;20.79;37.83
61554;BME280;47425;51.976;5.326;2023-06-14T02:37:27;101396.00;;;20.46;38.87
61554;BME280;47425;51.976;5.326;2023-06-14T02:39:55;101409.03;;;20.68;38.81
61554;BME280;47425;51.976;5.326;2023-06-14T02:42:23;101403.25;;;20.77;38.78
61554;BME280;47425;51.976;5.326;2023-06-14T02:44:49;101407.47;;;20.64;37.87
61554;BME280;47425;51.976;5.326;2023-06-14T02:47:18;101410.19;;;20.47;38.62
61554;BME280;47425;51.976;5.326;2023-06-14T02:49:49;101404.06;;;20.44;40.47
61554;BME280;47425;51.976;5.326;2023-06-14T02:52:15;101411.00;;;20.65;38.57
61554;BME280;47425;51.976;5.326;2023-06-14T02:54:42;101414.91;;;20.75;38.26
61554;BME280;47425;51.976;5.326;2023-06-14T02:57:10;101412.28;;;20.91;40.39
61554;BME280;47425;51.976;5.326;2023-06-14T02:59:37;101413.66;;;20.98;37.91
61554;BME280;47425;51.976;5.326;2023-06-14T03:02:05;101417.63;;;20.73;37.87
61554;BME280;47425;51.976;5.326;2023-06-14T03:04:32;101418.25;;;20.61;38.64
61554;BME280;47425;51.976;5.326;2023-06-14T03:07:09;101421.94;;;20.58;38.02
61554;BME280;47425;51.976;5.326;2023-06-14T03:09:39;101420.38;;;20.54;38.58
61554;BME280;47425;51.976;5.326;2023-06-14T03:12:09;101424.03;;;20.53;40.58
61554;BME280;47425;51.976;5.326;2023-06-14T03:14:36;101431.03;;;20.72;37.85
61554;BME280;47425;51.976;5.326;2023-06-14T03:17:07;101428.13;;;20.76;38.14
61554;BME280;47425;51.976;5.326;2023-06-14T03:19:35;101423.94;;;20.88;40.45
61554;BME280;47425;51.976;5.326;2023-06-14T03:22:03;101429.63;;;20.98;38.98
61554;BME280;47425;51.976;5.326;2023-06-14T03:24:33;101428.41;;;21.04;39.89
61554;BME280;47425;51.976;5.326;2023-06-14T03:27:08;101435.09;;;20.79;39.08
61554;BME280;47425;51.976;5.326;2023-06-14T03:29:39;101431.59;;;20.94;40.44
61554;BME280;47425;51.976;5.326;2023-06-14T03:32:07;101431.88;;;21.22;40.57
61554;BME280;47425;51.976;5.326;2023-06-14T03:34:38;101434.97;;;21.46;37.31
61554;BME280;47425;51.976;5.326;2023-06-14T03:37:05;101438.13;;;21.05;40.08
61554;BME280;47425;51.976;5.326;2023-06-14T03:39:34;101447.75;;;21.07;39.67
61554;BME280;47425;51.976;5.326;2023-06-14T03:42:01;101448.78;;;21.05;37.35
61554;BME280;47425;51.976;5.326;2023-06-14T03:44:29;101441.59;;;20.73;38.26
61554;BME280;47425;51.976;5.326;2023-06-14T03:46:56;101446.34;;;20.84;40.92
61554;BME280;47425;51.976;5.326;2023-06-14T03:49:24;101448.63;;;21.24;39.70
61554;BME280;47425;51.976;5.326;2023-06-14T03:51:51;101446.66;;;21.27;38.40
61554;BME280;47425;51.976;5.326;2023-06-14T03:54:21;101453.09;;;21.39;39.18
61554;BME280;47425;51.976;5.326;2023-06-14T03:56:52;101455.50;;;21.44;37.84
61554;BME280;47425;51.976;5.326;2023-06-14T03:59:19;101458.84;;;21.48;37.80
61554;BME280;47425;51.976;5.326;2023-06-14T04:01:48;101461.00;;;21.41;38.62
61554;BME280;47425;51.976;5.326;2023-06-14T04:04:15;101464.19;;;21.48;38.81
61554;BME280;47425;51.976;5.326;2023-06-14T04:06:43;101462.03;;;21.38;38.87
61554;BME280;47425;51.976;5.326;2023-06-14T04:09:13;101449.69;;;20.88;40.11
61554;BME280;47425;51.976;5.326;2023-06-14T04:11:43;101463.94;;;20.71;38.80
61554;BME280;47425;51.976;5.326;2023-06-14T04:14:12;101465.63;;;20.72;39.31
61554;BME280;47425;51.976;5.326;2023-06-14T04:16:39;101474.22;;;20.77;39.96
61554;BME280;47425;51.976;5.326;2023-06-14T04:19:06;101466.19;;;20.94;40.58
61554;BME280;47425;51.976;5.326;2023-06-14T04:21:33;101476.53;;;21.01;37.94
61554;BME280;47425;51.976;5.326;2023-06-14T04:24:02;101474.56;;;20.71;38.04
61554;BME280;47425;51.976;5.326;2023-06-14T04:26:32;101479.09;;;20.69;38.68
61554;BME280;47425;51.976;5.326;2023-06-14T04:29:01;101474.41;;;20.74;40.44
61554;BME280;47425;51.976;5.326;2023-06-14T04:31:31;101477.13;;;21.06;40.30
61554;BME280;47425;51.976;5.326;2023-06-14T04:34:00;101476.03;;;21.10;39.50
61554;BME280;47425;51.976;5.326;2023-06-14T04:36:31;101470.97;;;21.21;39.20
61554;BME280;47425;51.976;5.326;2023-06-14T04:39:19;101473.91;;;21.49;39.51
61554;BME280;47425;51.976;5.326;2023-06-14T04:41:47;101470.78;;;21.40;37.88
61554;BME280;47425;51.976;5.326;2023-06-14T04:44:18;101482.66;;;21.35;37.41
61554;BME280;47425;51.976;5.326;2023-06-14T04:46:48;101481.44;;;21.08;38.44
61554;BME280;47425;51.976;5.326;2023-06-14T04:49:21;101484.06;;;20.92;38.32
61554;BME280;47425;51.976;5.326;2023-06-14T04:51:50;101482.00;;;20.64;38.59
61554;BME280;47425;51.976;5.326;2023-06-14T04:54:26;101487.09;;;20.51;39.38
61554;BME280;47425;51.976;5.326;2023-06-14T04:56:52;101493.25;;;20.52;39.10
61554;BME280;47425;51.976;5.326;2023-06-14T04:59:24;101491.94;;;20.25;40.57
61554;BME280;47425;51.976;5.326;2023-06-14T05:01:52;101484.81;;;20.26;40.26
61554;BME280;47425;51.976;5.326;2023-06-14T05:04:19;101489.50;;;20.21;39.59
61554;BME280;47425;51.976;5.326;2023-06-14T05:06:48;101490.94;;;20.10;39.54
61554;BME280;47425;51.976;5.326;2023-06-14T05:09:14;101489.66;;;20.00;39.81
61554;BME280;47425;51.976;5.326;2023-06-14T05:11:43;101495.25;;;20.13;41.59
61554;BME280;47425;51.976;5.326;2023-06-14T05:14:11;101493.44;;;20.31;43.13
61554;BME280;47425;51.976;5.326;2023-06-14T05:16:39;101496.16;;;20.65;39.53
61554;BME280;47425;51.976;5.326;2023-06-14T05:19:07;101495.91;;;20.52;39.37
61554;BME280;47425;51.976;5.326;2023-06-14T05:21:34;101500.56;;;20.31;39.39
61554;BME280;47425;51.976;5.326;2023-06-14T05:24:00;101501.50;;;20.12;39.75
61554;BME280;47425;51.976;5.326;2023-06-14T05:26:28;101503.75;;;20.02;40.12
61554;BME280;47425;51.976;5.326;2023-06-14T05:28:55;101506.25;;;20.05;41.53
61554;BME280;47425;51.976;5.326;2023-06-14T05:31:22;101501.78;;;20.23;41.07
61554;BME280;47425;51.976;5.326;2023-06-14T05:33:51;101499.50;;;20.16;40.25
61554;BME280;47425;51.976;5.326;2023-06-14T05:36:19;101502.59;;;20.25;40.35
61554;BME280;47425;51.976;5.326;2023-06-14T05:38:46;101511.13;;;20.32;40.06
61554;BME280;47425;51.976;5.326;2023-06-14T05:41:13;101506.91;;;20.28;40.66
61554;BME280;47425;51.976;5.326;2023-06-14T05:43:40;101504.91;;;20.32;40.62
61554;BME280;47425;51.976;5.326;2023-06-14T05:46:07;101508.63;;;20.47;40.56
61554;BME280;47425;51.976;5.326;2023-06-14T05:48:34;101515.00;;;20.42;39.98
61554;BME280;47425;51.976;5.326;2023-06-14T05:51:00;101520.50;;;20.57;41.88
61554;BME280;47425;51.976;5.326;2023-06-14T05:53:29;101525.78;;;20.92;40.63
61554;BME280;47425;51.976;5.326;2023-06-14T05:55:56;101525.16;;;21.04;39.35
61554;BME280;47425;51.976;5.326;2023-06-14T05:58:22;101529.53;;;21.05;41.57
61554;BME280;47425;51.976;5.326;2023-06-14T06:00:51;101527.91;;;21.19;40.02
61554;BME280;47425;51.976;5.326;2023-06-14T06:03:21;101530.97;;;21.28;40.46
61554;BME280;47425;51.976;5.326;2023-06-14T06:05:48;101542.13;;;21.51;40.03
61554;BME280;47425;51.976;5.326;2023-06-14T06:08:16;101537.63;;;21.69;40.14
61554;BME280;47425;51.976;5.326;2023-06-14T06:10:44;101504.75;;;21.85;38.01
61554;BME280;47425;51.976;5.326;2023-06-14T06:13:10;101517.13;;;21.86;37.46
61554;BME280;47425;51.976;5.326;2023-06-14T06:15:37;101538.13;;;21.92;39.06
61554;BME280;47425;51.976;5.326;2023-06-14T06:18:05;101539.63;;;22.28;37.56
61554;BME280;47425;51.976;5.326;2023-06-14T06:20:31;101541.63;;;22.55;39.55
61554;BME280;47425;51.976;5.326;2023-06-14T06:22:58;101547.75;;;22.71;37.80
61554;BME280;47425;51.976;5.326;2023-06-14T06:25:28;101547.56;;;22.89;36.87
61554;BME280;47425;51.976;5.326;2023-06-14T06:27:59;101545.13;;;23.15;38.65
61554;BME280;47425;51.976;5.326;2023-06-14T06:30:26;101550.94;;;23.50;38.08
61554;BME280;47425;51.976;5.326;2023-06-14T06:32:53;101551.31;;;23.86;37.11
61554;BME280;47425;51.976;5.326;2023-06-14T06:35:21;101543.28;;;24.13;35.86
61554;BME280;47425;51.976;5.326;2023-06-14T06:37:49;101551.59;;;24.23;35.63
61554;BME280;47425;51.976;5.326;2023-06-14T06:40:16;101555.34;;;24.33;35.34
61554;BME280;47425;51.976;5.326;2023-06-14T06:42:42;101556.22;;;24.34;36.10
61554;BME280;47425;51.976;5.326;2023-06-14T06:45:13;101560.13;;;24.55;34.39
61554;BME280;47425;51.976;5.326;2023-06-14T06:47:41;101564.06;;;24.50;34.99
61554;BME280;47425;51.976;5.326;2023-06-14T06:50:08;101575.13;;;24.58;35.22
61554;BME280;47425;51.976;5.326;2023-06-14T06:52:34;101572.47;;;24.71;35.11
61554;BME280;47425;51.976;5.326;2023-06-14T06:55:03;101580.09;;;24.77;35.41
61554;BME280;47425;51.976;5.326;2023-06-14T06:57:30;101570.03;;;24.81;34.88
61554;BME280;47425;51.976;5.326;2023-06-14T06:59:57;101577.19;;;24.67;34.21
61554;BME280;47425;51.976;5.326;2023-06-14T07:02:27;101578.53;;;24.47;34.25
61554;BME280;47425;51.976;5.326;2023-06-14T07:04:57;101585.38;;;24.51;34.28
61554;BME280;47425;51.976;5.326;2023-06-14T07:07:24;101581.78;;;24.65;35.52
61554;BME280;47425;51.976;5.326;2023-06-14T07:09:51;101584.59;;;24.76;34.24
61554;BME280;47425;51.976;5.326;2023-06-14T07:12:19;101594.03;;;24.82;34.48
61554;BME280;47425;51.976;5.326;2023-06-14T07:14:45;101593.16;;;24.82;33.12
61554;BME280;47425;51.976;5.326;2023-06-14T07:17:12;101591.13;;;24.72;32.92
61554;BME280;47425;51.976;5.326;2023-06-14T07:19:40;101590.38;;;24.70;35.06
61554;BME280;47425;51.976;5.326;2023-06-14T07:22:09;101586.84;;;24.70;33.63
61554;BME280;47425;51.976;5.326;2023-06-14T07:24:36;101592.72;;;24.62;34.00
61554;BME280;47425;51.976;5.326;2023-06-14T07:27:03;101587.28;;;24.76;33.82
61554;BME280;47425;51.976;5.326;2023-06-14T07:29:30;101594.91;;;24.95;34.32
61554;BME280;47425;51.976;5.326;2023-06-14T07:31:58;101598.75;;;25.04;34.72
61554;BME280;47425;51.976;5.326;2023-06-14T07:34:24;101594.56;;;25.13;33.79
61554;BME280;47425;51.976;5.326;2023-06-14T07:36:52;101600.69;;;25.41;34.59
61554;BME280;47425;51.976;5.326;2023-06-14T07:39:20;101607.94;;;25.65;33.27
61554;BME280;47425;51.976;5.326;2023-06-14T07:41:47;101615.59;;;25.82;32.42
61554;BME280;47425;51.976;5.326;2023-06-14T07:44:14;101606.28;;;25.88;32.80
61554;BME280;47425;51.976;5.326;2023-06-14T07:46:41;101616.81;;;26.02;32.15
61554;BME280;47425;51.976;5.326;2023-06-14T07:49:09;101621.78;;;26.08;30.67
61554;BME280;47425;51.976;5.326;2023-06-14T07:51:36;101621.09;;;26.18;32.77
61554;BME280;47425;51.976;5.326;2023-06-14T07:54:04;101627.72;;;26.25;31.78
61554;BME280;47425;51.976;5.326;2023-06-14T07:56:32;101625.78;;;26.27;31.39
61554;BME280;47425;51.976;5.326;2023-06-14T07:58:59;101629.44;;;26.26;33.11
61554;BME280;47425;51.976;5.326;2023-06-14T08:01:25;101636.53;;;26.27;31.84
61554;BME280;47425;51.976;5.326;2023-06-14T08:03:53;101630.69;;;26.33;31.95
61554;BME280;47425;51.976;5.326;2023-06-14T08:06:21;101638.94;;;26.43;32.15
61554;BME280;47425;51.976;5.326;2023-06-14T08:08:47;101632.34;;;26.47;31.37
61554;BME280;47425;51.976;5.326;2023-06-14T08:11:17;101619.41;;;26.52;31.28
61554;BME280;47425;51.976;5.326;2023-06-14T08:13:43;101625.34;;;26.69;31.96
61554;BME280;47425;51.976;5.326;2023-06-14T08:16:30;101625.50;;;26.78;31.98
61554;BME280;47425;51.976;5.326;2023-06-14T08:18:56;101629.41;;;26.74;30.34
61554;BME280;47425;51.976;5.326;2023-06-14T08:21:23;101631.00;;;26.77;30.87
61554;BME280;47425;51.976;5.326;2023-06-14T08:23:54;101636.72;;;26.72;30.78
61554;BME280;47425;51.976;5.326;2023-06-14T08:26:22;101635.91;;;26.83;32.09
61554;BME280;47425;51.976;5.326;2023-06-14T08:28:49;101628.97;;;26.92;31.77
61554;BME280;47425;51.976;5.326;2023-06-14T08:31:15;101630.19;;;26.99;30.44
61554;BME280;47425;51.976;5.326;2023-06-14T08:33:43;101632.53;;;27.04;29.46
61554;BME280;47425;51.976;5.326;2023-06-14T08:36:10;101616.28;;;27.05;31.45
61554;BME280;47425;51.976;5.326;2023-06-14T08:38:42;101632.06;;;27.21;31.40
61554;BME280;47425;51.976;5.326;2023-06-14T08:41:11;101632.31;;;27.18;30.00
61554;BME280;47425;51.976;5.326;2023-06-14T08:43:41;101626.94;;;27.18;30.13
61554;BME280;47425;51.976;5.326;2023-06-14T08:46:08;101627.91;;;27.17;30.43
61554;BME280;47425;51.976;5.326;2023-06-14T08:48:37;101612.00;;;27.03;30.07
61554;BME280;47425;51.976;5.326;2023-06-14T08:51:05;101624.00;;;27.21;31.29
61554;BME280;47425;51.976;5.326;2023-06-14T08:53:33;101624.84;;;27.22;29.39
61554;BME280;47425;51.976;5.326;2023-06-14T08:56:08;101624.72;;;27.12;29.44
61554;BME280;47425;51.976;5.326;2023-06-14T08:58:43;101623.88;;;27.11;31.32
61554;BME280;47425;51.976;5.326;2023-06-14T09:01:11;101614.47;;;27.17;28.81
61554;BME280;47425;51.976;5.326;2023-06-14T09:03:40;101628.41;;;27.22;27.70
61554;BME280;47425;51.976;5.326;2023-06-14T09:06:07;101631.09;;;27.22;29.24
61554;BME280;47425;51.976;5.326;2023-06-14T09:08:40;101615.53;;;27.03;28.50
61554;BME280;47425;51.976;5.326;2023-06-14T09:11:11;101632.66;;;27.13;29.09
61554;BME280;47425;51.976;5.326;2023-06-14T09:13:37;101627.91;;;27.28;30.26
61554;BME280;47425;51.976;5.326;2023-06-14T09:16:05;101626.06;;;27.18;29.29
61554;BME280;47425;51.976;5.326;2023-06-14T09:18:36;101631.81;;;27.24;27.43
61554;BME280;47425;51.976;5.326;2023-06-14T09:21:05;101630.09;;;27.12;27.50
61554;BME280;47425;51.976;5.326;2023-06-14T09:23:33;101644.25;;;26.91;26.50
61554;BME280;47425;51.976;5.326;2023-06-14T09:26:06;101640.66;;;26.79;26.03
61554;BME280;47425;51.976;5.326;2023-06-14T09:28:34;101640.09;;;26.87;30.04
61554;BME280;47425;51.976;5.326;2023-06-14T09:31:01;101644.13;;;26.93;27.54
61554;BME280;47425;51.976;5.326;2023-06-14T09:33:30;101629.75;;;26.70;26.71
61554;BME280;47425;51.976;5.326;2023-06-14T09:35:57;101627.69;;;26.73;27.01
61554;BME280;47425;51.976;5.326;2023-06-14T09:38:25;101631.13;;;26.75;27.98
61554;BME280;47425;51.976;5.326;2023-06-14T09:40:52;101628.31;;;26.88;29.60
61554;BME280;47425;51.976;5.326;2023-06-14T09:43:19;101638.75;;;26.93;25.94
61554;BME280;47425;51.976;5.326;2023-06-14T09:45:47;101628.72;;;26.95;27.94
61554;BME280;47425;51.976;5.326;2023-06-14T09:48:16;101634.97;;;27.07;27.86
61554;BME280;47425;51.976;5.326;2023-06-14T09:50:46;101636.22;;;27.25;27.51
61554;BME280;47425;51.976;5.326;2023-06-14T09:53:14;101638.72;;;27.40;29.20
61554;BME280;47425;51.976;5.326;2023-06-14T09:55:42;101628.91;;;27.61;27.66
61554;BME280;47425;51.976;5.326;2023-06-14T09:58:11;101618.16;;;27.61;26.04
61554;BME280;47425;51.976;5.326;2023-06-14T10:00:41;101629.16;;;27.58;27.95
61554;BME280;47425;51.976;5.326;2023-06-14T10:03:12;101628.31;;;27.69;26.19
61554;BME280;47425;51.976;5.326;2023-06-14T10:05:43;101621.81;;;27.72;28.72
61554;BME280;47425;51.976;5.326;2023-06-14T10:08:14;101625.72;;;27.68;24.97
61554;BME280;47425;51.976;5.326;2023-06-14T10:10:47;101622.81;;;27.48;25.19
61554;BME280;47425;51.976;5.326;2023-06-14T10:13:14;101629.63;;;27.41;25.35
61554;BME280;47425;51.976;5.326;2023-06-14T10:16:07;101629.91;;;27.49;27.24
61554;BME280;47425;51.976;5.326;2023-06-14T10:18:42;101631.97;;;27.57;26.62
61554;BME280;47425;51.976;5.326;2023-06-14T10:21:16;101625.59;;;27.58;26.56
61554;BME280;47425;51.976;5.326;2023-06-14T10:23:47;101614.94;;;27.68;24.82
61554;BME280;47425;51.976;5.326;2023-06-14T10:26:20;101622.44;;;27.41;24.52
61554;BME280;47425;51.976;5.326;2023-06-14T10:28:59;101618.16;;;27.39;25.10
61554;BME280;47425;51.976;5.326;2023-06-14T10:31:41;101618.16;;;27.61;27.14
61554;BME280;47425;51.976;5.326;2023-06-14T10:34:09;101622.63;;;27.84;27.26
61554;BME280;47425;51.976;5.326;2023-06-14T10:36:37;101613.56;;;27.85;25.42
61554;BME280;47425;51.976;5.326;2023-06-14T10:39:07;101613.84;;;27.82;24.07
61554;BME280;47425;51.976;5.326;2023-06-14T10:41:37;101609.19;;;27.61;26.11
61554;BME280;47425;51.976;5.326;2023-06-14T10:44:40;101609.34;;;27.71;25.33
61554;BME280;47425;51.976;5.326;2023-06-14T10:47:27;101609.59;;;27.56;23.94
61554;BME280;47425;51.976;5.326;2023-06-14T10:49:55;101619.00;;;27.39;24.60
61554;BME280;47425;51.976;5.326;2023-06-14T10:52:24;101615.47;;;27.39;24.64
61554;BME280;47425;51.976;5.326;2023-06-14T10:55:02;101616.94;;;27.43;24.83
61554;BME280;47425;51.976;5.326;2023-06-14T10:57:32;101615.34;;;27.40;23.90
61554;BME280;47425;51.976;5.326;2023-06-14T10:59:59;101591.47;;;27.24;25.57
61554;BME280;47425;51.976;5.326;2023-06-14T11:05:51;101617.44;;;27.48;23.95
61554;BME280;47425;51.976;5.326;2023-06-14T11:11:42;101615.81;;;27.34;24.94
61554;BME280;47425;51.976;5.326;2023-06-14T11:14:10;101614.06;;;27.22;24.49
61554;BME280;47425;51.976;5.326;2023-06-14T11:16:37;101614.94;;;27.11;23.97
61554;BME280;47425;51.976;5.326;2023-06-14T11:19:05;101613.84;;;27.02;24.67
61554;BME280;47425;51.976;5.326;2023-06-14T11:21:34;101610.78;;;26.95;24.40
61554;BME280;47425;51.976;5.326;2023-06-14T11:24:00;101607.34;;;26.93;24.81
61554;BME280;47425;51.976;5.326;2023-06-14T11:26:28;101605.91;;;27.01;24.97
61554;BME280;47425;51.976;5.326;2023-06-14T11:28:59;101607.25;;;27.18;25.71
61554;BME280;47425;51.976;5.326;2023-06-14T11:31:26;101614.97;;;27.22;24.32
61554;BME280;47425;51.976;5.326;2023-06-14T11:33:54;101616.41;;;27.15;24.28
61554;BME280;47425;51.976;5.326;2023-06-14T11:36:22;101613.22;;;27.10;24.47
61554;BME280;47425;51.976;5.326;2023-06-14T11:38:49;101602.84;;;26.94;24.60
61554;BME280;47425;51.976;5.326;2023-06-14T11:41:16;101604.13;;;26.88;24.82
61554;BME280;47425;51.976;5.326;2023-06-14T11:43:43;101600.91;;;27.07;26.57
61554;BME280;47425;51.976;5.326;2023-06-14T11:46:15;101601.88;;;27.29;24.10
61554;BME280;47425;51.976;5.326;2023-06-14T11:48:44;101599.41;;;27.26;23.00
61554;BME280;47425;51.976;5.326;2023-06-14T11:51:13;101607.00;;;27.09;25.01
61554;BME280;47425;51.976;5.326;2023-06-14T11:53:39;101599.78;;;27.21;24.22
61554;BME280;47425;51.976;5.326;2023-06-14T11:56:26;101601.97;;;27.16;24.51
61554;BME280;47425;51.976;5.326;2023-06-14T11:58:53;101603.47;;;27.32;25.35
61554;BME280;47425;51.976;5.326;2023-06-14T12:01:23;101602.84;;;27.28;25.10
61554;BME280;47425;51.976;5.326;2023-06-14T12:03:53;101605.28;;;27.31;24.03
61554;BME280;47425;51.976;5.326;2023-06-14T12:06:28;101604.44;;;27.30;23.85
61554;BME280;47425;51.976;5.326;2023-06-14T12:08:59;101595.25;;;27.22;25.28
61554;BME280;47425;51.976;5.326;2023-06-14T12:11:31;101596.63;;;27.27;24.33
61554;BME280;47425;51.976;5.326;2023-06-14T12:14:03;101604.44;;;27.30;24.04
61554;BME280;47425;51.976;5.326;2023-06-14T12:16:33;101602.22;;;27.24;24.54
61554;BME280;47425;51.976;5.326;2023-06-14T12:19:13;101606.75;;;27.35;24.28
61554;BME280;47425;51.976;5.326;2023-06-14T12:21:41;101606.19;;;27.43;23.70
61554;BME280;47425;51.976;5.326;2023-06-14T12:24:09;101603.75;;;27.40;23.80
61554;BME280;47425;51.976;5.326;2023-06-14T12:26:40;101598.44;;;27.61;24.83
61554;BME280;47425;51.976;5.326;2023-06-14T12:29:07;101607.75;;;27.68;24.39
61554;BME280;47425;51.976;5.326;2023-06-14T12:31:36;101603.91;;;27.82;25.86
61554;BME280;47425;51.976;5.326;2023-06-14T12:34:04;101605.00;;;28.02;24.35
61554;BME280;47425;51.976;5.326;2023-06-14T12:36:31;101600.31;;;28.16;25.48
61554;BME280;47425;51.976;5.326;2023-06-14T12:38:59;101598.28;;;28.29;23.90
61554;BME280;47425;51.976;5.326;2023-06-14T12:41:27;101605.94;;;28.45;24.56
61554;BME280;47425;51.976;5.326;2023-06-14T12:43:53;101594.97;;;28.58;24.92
61554;BME280;47425;51.976;5.326;2023-06-14T12:46:20;101605.63;;;28.59;24.23
61554;BME280;47425;51.976;5.326;2023-06-14T12:48:48;101604.50;;;28.41;22.99
61554;BME280;47425;51.976;5.326;2023-06-14T12:51:16;101598.00;;;28.43;25.64
61554;BME280;47425;51.976;5.326;2023-06-14T12:53:43;101602.06;;;28.59;26.22
61554;BME280;47425;51.976;5.326;2023-06-14T12:56:09;101598.22;;;28.73;25.62
61554;BME280;47425;51.976;5.326;2023-06-14T12:58:36;101590.09;;;28.52;23.01
61554;BME280;47425;51.976;5.326;2023-06-14T13:01:04;101616.31;;;28.50;24.24
61554;BME280;47425;51.976;5.326;2023-06-14T13:03:31;101606.88;;;28.55;23.89
61554;BME280;47425;51.976;5.326;2023-06-14T13:06:00;101600.88;;;28.52;23.31